createdAt,value
2017-11-17T00:01:08.987Z,3.15
2017-11-17T00:03:36.500Z,3.20
2017-11-17T00:06:04.815Z,2.80
2017-11-17T00:08:32.393Z,2.87
2017-11-17T00:10:59.920Z,2.97
2017-11-17T00:13:27.488Z,2.50
2017-11-17T00:15:55.016Z,2.50
2017-11-17T00:18:23.316Z,3.30
2017-11-17T00:20:50.902Z,2.90
2017-11-17T00:23:18.427Z,2.37
2017-11-17T00:25:46.007Z,3.10
2017-11-17T00:28:13.555Z,2.90
2017-11-17T00:30:41.100Z,4.00
2017-11-17T00:33:08.627Z,2.87
2017-11-17T00:35:36.179Z,2.90
2017-11-17T00:38:03.722Z,2.50
2017-11-17T00:40:31.233Z,2.65
2017-11-17T00:42:58.806Z,2.90
2017-11-17T00:45:26.348Z,3.35
2017-11-17T00:47:54.642Z,2.63
2017-11-17T00:50:22.236Z,2.40
2017-11-17T00:52:49.767Z,2.47
2017-11-17T00:55:17.271Z,2.53
2017-11-17T00:57:44.823Z,2.58
2017-11-17T01:00:12.348Z,2.58
2017-11-17T01:02:39.879Z,2.42
2017-11-17T01:05:08.235Z,2.75
2017-11-17T01:07:35.741Z,2.90
2017-11-17T01:10:03.274Z,2.70
2017-11-17T01:12:31.583Z,2.78
2017-11-17T01:14:59.092Z,2.55
2017-11-17T01:17:26.605Z,3.42
2017-11-17T01:19:54.175Z,2.40
2017-11-17T01:22:21.679Z,2.30
2017-11-17T01:24:49.185Z,2.53
2017-11-17T01:27:16.740Z,2.65
2017-11-17T01:29:44.247Z,2.47
2017-11-17T01:32:11.776Z,2.60
2017-11-17T01:34:39.343Z,2.50
2017-11-17T01:37:06.874Z,2.83
2017-11-17T01:39:34.413Z,2.60
2017-11-17T01:42:02.744Z,2.70
2017-11-17T01:44:30.251Z,2.65
2017-11-17T01:46:57.756Z,2.25
2017-11-17T01:49:25.810Z,2.53
2017-11-17T01:51:53.351Z,2.55
2017-11-17T01:54:20.867Z,2.30
2017-11-17T01:56:48.416Z,2.75
2017-11-17T01:59:15.919Z,2.47
2017-11-17T02:01:44.188Z,2.63
2017-11-17T02:04:12.512Z,2.73
2017-11-17T02:06:40.071Z,3.25
2017-11-17T02:09:07.611Z,2.42
2017-11-17T02:11:35.184Z,2.80
2017-11-17T02:14:02.714Z,3.17
2017-11-17T02:16:30.256Z,2.72
2017-11-17T02:18:58.591Z,2.40
2017-11-17T02:21:26.130Z,2.55
2017-11-17T02:23:53.665Z,2.55
2017-11-17T02:26:21.227Z,2.70
2017-11-17T02:28:49.500Z,2.65
2017-11-17T02:31:17.798Z,2.90
2017-11-17T02:33:45.370Z,2.60
2017-11-17T02:36:12.900Z,2.40
2017-11-17T02:38:40.824Z,2.70
2017-11-17T02:41:08.400Z,3.50
2017-11-17T02:43:36.023Z,2.95
2017-11-17T02:46:03.532Z,2.85
2017-11-17T02:48:31.852Z,2.07
2017-11-17T02:50:59.385Z,2.40
2017-11-17T02:53:26.933Z,3.17
2017-11-17T02:55:55.271Z,2.37
2017-11-17T02:58:22.779Z,2.90
2017-11-17T03:00:51.052Z,2.70
2017-11-17T03:03:19.379Z,2.50
2017-11-17T03:05:46.915Z,2.95
2017-11-17T03:08:14.435Z,2.70
2017-11-17T03:10:42.767Z,2.60
2017-11-17T03:13:10.298Z,2.40
2017-11-17T03:15:37.835Z,1.92
2017-11-17T03:18:06.174Z,2.60
2017-11-17T03:20:33.713Z,2.30
2017-11-17T03:23:01.228Z,2.80
2017-11-17T03:25:28.776Z,2.75
2017-11-17T03:27:56.284Z,2.28
2017-11-17T03:30:23.800Z,2.33
2017-11-17T03:32:51.338Z,2.47
2017-11-17T03:35:19.231Z,2.30
2017-11-17T03:37:46.734Z,2.23
2017-11-17T03:40:14.284Z,2.40
2017-11-17T03:42:41.812Z,3.03
2017-11-17T03:45:10.111Z,2.70
2017-11-17T03:47:37.683Z,2.60
2017-11-17T03:50:05.187Z,2.50
2017-11-17T03:52:32.722Z,2.15
2017-11-17T03:55:00.277Z,2.35
2017-11-17T03:57:28.547Z,2.92
2017-11-17T03:59:56.075Z,2.72
2017-11-17T04:02:24.801Z,2.30
2017-11-17T04:04:52.335Z,2.20
2017-11-17T04:07:19.863Z,2.67
2017-11-17T04:09:47.403Z,3.00
2017-11-17T04:12:14.911Z,2.58
2017-11-17T04:14:42.443Z,2.55
2017-11-17T04:17:10.411Z,2.05
2017-11-17T04:19:37.948Z,2.37
2017-11-17T04:22:05.455Z,2.90
2017-11-17T04:24:33.007Z,2.70
2017-11-17T04:27:01.305Z,2.60
2017-11-17T04:29:29.304Z,2.55
2017-11-17T04:31:56.878Z,2.42
2017-11-17T04:34:24.387Z,2.60
2017-11-17T04:36:51.943Z,2.50
2017-11-17T04:39:19.507Z,3.08
2017-11-17T04:41:47.056Z,2.80
2017-11-17T04:44:14.565Z,2.10
2017-11-17T04:46:42.113Z,2.23
2017-11-17T04:49:09.647Z,2.62
2017-11-17T04:51:37.184Z,2.70
2017-11-17T04:54:05.524Z,2.90
2017-11-17T04:56:33.060Z,2.72
2017-11-17T04:59:00.624Z,2.27
2017-11-17T05:01:28.156Z,2.50
2017-11-17T05:03:55.709Z,2.53
2017-11-17T05:06:23.987Z,2.25
2017-11-17T05:08:51.517Z,2.70
2017-11-17T05:11:19.059Z,2.40
2017-11-17T05:13:46.592Z,2.90
2017-11-17T05:16:14.923Z,2.20
2017-11-17T05:18:42.454Z,2.70
2017-11-17T05:21:09.958Z,2.75
2017-11-17T05:23:38.300Z,2.40
2017-11-17T05:26:05.810Z,2.28
2017-11-17T05:28:33.338Z,2.60
2017-11-17T05:31:01.680Z,2.90
2017-11-17T05:33:29.215Z,2.40
2017-11-17T05:35:56.779Z,2.25
2017-11-17T05:38:24.380Z,2.62
2017-11-17T05:40:51.916Z,2.78
2017-11-17T05:43:19.431Z,2.35
2017-11-17T05:45:48.155Z,2.40
2017-11-17T05:48:15.679Z,2.40
2017-11-17T05:50:43.979Z,2.27
2017-11-17T05:53:11.525Z,2.75
2017-11-17T05:55:39.044Z,2.83
2017-11-17T05:58:06.576Z,2.35
2017-11-17T06:00:34.152Z,1.83
2017-11-17T06:03:01.663Z,2.33
2017-11-17T06:05:29.188Z,2.30
2017-11-17T06:07:57.512Z,2.58
2017-11-17T06:10:25.049Z,2.20
2017-11-17T06:12:55.337Z,1.95
2017-11-17T06:15:22.879Z,2.80
2017-11-17T06:17:50.377Z,2.50
2017-11-17T06:20:18.812Z,3.03
2017-11-17T06:22:46.346Z,2.53
2017-11-17T06:25:13.856Z,5.50
2017-11-17T06:27:41.380Z,7.12
2017-11-17T06:30:08.921Z,7.43
2017-11-17T06:32:36.428Z,5.90
2017-11-17T06:35:03.944Z,5.40
2017-11-17T06:37:31.507Z,5.83
2017-11-17T06:39:59.492Z,6.00
2017-11-17T06:42:27.032Z,5.22
2017-11-17T06:44:54.593Z,4.37
2017-11-17T06:47:22.099Z,4.60
2017-11-17T06:49:49.636Z,7.90
2017-11-17T06:52:17.187Z,10.23
2017-11-17T06:54:44.731Z,7.62
2017-11-17T06:57:12.263Z,9.52
2017-11-17T06:59:40.575Z,6.18
2017-11-17T07:02:08.101Z,5.97
2017-11-17T07:04:36.404Z,4.60
2017-11-17T07:07:03.966Z,5.10
2017-11-17T07:09:31.513Z,3.90
2017-11-17T07:11:59.048Z,5.10
2017-11-17T07:14:27.383Z,9.50
2017-11-17T07:16:54.917Z,5.50
2017-11-17T07:19:22.429Z,5.22
2017-11-17T07:21:49.980Z,5.28
2017-11-17T07:24:17.521Z,5.13
2017-11-17T07:26:45.052Z,4.25
2017-11-17T07:29:12.587Z,4.43
2017-11-17T07:31:40.860Z,4.13
2017-11-17T07:34:08.365Z,3.92
2017-11-17T07:36:35.887Z,3.93
2017-11-17T07:39:04.163Z,3.67
2017-11-17T07:41:32.497Z,4.93
2017-11-17T07:44:00.048Z,5.37
2017-11-17T07:46:27.566Z,4.55
2017-11-17T07:48:55.842Z,9.27
2017-11-17T07:51:24.176Z,7.00
2017-11-17T07:53:51.685Z,5.15
2017-11-17T07:56:19.980Z,4.78
2017-11-17T07:58:47.549Z,5.00
2017-11-17T08:01:15.064Z,4.93
2017-11-17T08:03:43.359Z,4.43
2017-11-17T08:06:11.674Z,4.27
2017-11-17T08:08:39.187Z,4.35
2017-11-17T08:11:07.458Z,4.60
2017-11-17T08:13:35.763Z,5.07
2017-11-17T08:16:03.263Z,4.37
2017-11-17T08:18:37.761Z,5.10
2017-11-17T08:21:05.664Z,3.62
2017-11-17T08:23:33.207Z,4.17
2017-11-17T08:26:00.760Z,4.53
2017-11-17T08:28:28.271Z,3.72
2017-11-17T08:30:56.995Z,3.75
2017-11-17T08:33:24.544Z,3.92
2017-11-17T08:35:52.045Z,3.77
2017-11-17T08:38:19.572Z,3.87
2017-11-17T08:40:47.550Z,4.25
2017-11-17T08:43:15.068Z,4.00
2017-11-17T08:45:43.343Z,3.70
2017-11-17T08:48:11.651Z,3.85
2017-11-17T08:50:39.620Z,3.63
2017-11-17T08:53:07.127Z,3.60
2017-11-17T08:55:34.739Z,4.10
2017-11-17T08:58:02.267Z,3.80
2017-11-17T09:00:30.572Z,3.22
2017-11-17T09:02:58.148Z,3.90
2017-11-17T09:05:25.686Z,3.58
2017-11-17T09:07:53.223Z,3.53
2017-11-17T09:10:21.539Z,4.00
2017-11-17T09:12:49.059Z,3.60
2017-11-17T09:15:17.336Z,3.60
2017-11-17T09:17:45.647Z,3.40
2017-11-17T09:20:13.152Z,3.20
2017-11-17T09:22:40.680Z,3.70
2017-11-17T09:25:08.948Z,3.42
2017-11-17T09:27:36.467Z,3.30
2017-11-17T09:30:04.736Z,3.05
2017-11-17T09:32:33.028Z,3.83
2017-11-17T09:35:01.849Z,4.43
2017-11-17T09:37:29.383Z,3.73
2017-11-17T09:39:57.687Z,3.20
2017-11-17T09:42:25.216Z,2.72
2017-11-17T09:44:52.733Z,3.00
2017-11-17T09:47:20.289Z,2.90
2017-11-17T09:49:47.824Z,3.13
2017-11-17T09:52:15.360Z,5.25
2017-11-17T09:54:42.927Z,3.20
2017-11-17T09:57:10.439Z,2.80
2017-11-17T09:59:37.977Z,3.20
2017-11-17T10:02:05.934Z,2.90
2017-11-17T10:04:33.444Z,3.30
2017-11-17T10:07:01.719Z,2.97
2017-11-17T10:09:29.660Z,3.25
2017-11-17T10:11:57.187Z,3.08
2017-11-17T10:14:24.711Z,3.20
2017-11-17T10:16:53.056Z,3.17
2017-11-17T10:19:20.567Z,3.30
2017-11-17T10:21:48.103Z,3.08
2017-11-17T10:24:16.421Z,2.90
2017-11-17T10:26:43.990Z,3.20
2017-11-17T10:29:11.507Z,2.90
2017-11-17T10:31:39.822Z,3.35
2017-11-17T10:34:07.321Z,6.50
2017-11-17T10:36:34.840Z,8.70
2017-11-17T10:39:02.422Z,8.50
2017-11-17T10:41:29.963Z,9.77
2017-11-17T10:43:58.247Z,9.32
2017-11-17T10:46:25.816Z,8.33
2017-11-17T10:48:53.348Z,10.52
2017-11-17T10:51:20.864Z,10.10
2017-11-17T10:53:48.892Z,10.82
2017-11-17T10:56:19.340Z,10.37
2017-11-17T10:58:46.856Z,9.95
2017-11-17T11:01:14.427Z,9.93
2017-11-17T11:03:41.935Z,7.70
2017-11-17T11:06:09.472Z,8.30
2017-11-17T11:08:37.043Z,9.13
2017-11-17T11:11:10.408Z,6.70
2017-11-17T11:13:37.968Z,6.78
2017-11-17T11:16:05.498Z,7.32
2017-11-17T11:18:33.801Z,6.40
2017-11-17T11:21:01.377Z,6.12
2017-11-17T11:23:28.885Z,6.35
2017-11-17T11:25:57.155Z,5.97
2017-11-17T11:28:25.484Z,6.70
2017-11-17T11:30:53.016Z,6.60
2017-11-17T11:33:20.539Z,5.87
2017-11-17T11:35:48.103Z,7.40
2017-11-17T11:38:16.375Z,5.60
2017-11-17T11:40:43.879Z,5.93
2017-11-17T11:43:11.425Z,6.22
2017-11-17T11:45:39.748Z,6.25
2017-11-17T11:48:07.255Z,6.00
2017-11-17T11:50:35.576Z,6.30
2017-11-17T11:53:03.088Z,6.27
2017-11-17T11:55:31.359Z,6.20
2017-11-17T11:57:59.687Z,6.27
2017-11-17T12:00:27.196Z,5.78
2017-11-17T12:02:55.506Z,5.73
2017-11-17T12:05:23.063Z,5.20
2017-11-17T12:07:50.599Z,5.53
2017-11-17T12:10:18.897Z,6.30
2017-11-17T12:12:46.440Z,5.37
2017-11-17T12:15:14.739Z,5.70
2017-11-17T12:17:42.279Z,5.60
2017-11-17T12:20:09.827Z,4.95
2017-11-17T12:22:38.137Z,4.62
2017-11-17T12:25:05.686Z,4.65
2017-11-17T12:27:33.287Z,7.00
2017-11-17T12:30:01.598Z,5.20
2017-11-17T12:32:29.206Z,6.20
2017-11-17T12:34:56.768Z,6.30
2017-11-17T12:37:24.307Z,5.85
2017-11-17T12:39:51.847Z,5.80
2017-11-17T12:42:20.160Z,6.28
2017-11-17T12:44:47.705Z,6.00
2017-11-17T12:47:15.247Z,7.40
2017-11-17T12:49:42.819Z,6.77
2017-11-17T12:52:10.355Z,6.45
2017-11-17T12:54:38.660Z,5.95
2017-11-17T12:57:07.000Z,6.25
2017-11-17T12:59:35.678Z,7.40
2017-11-17T13:02:03.218Z,6.15
2017-11-17T13:04:30.791Z,7.00
2017-11-17T13:06:58.331Z,7.30
2017-11-17T13:09:25.850Z,6.57
2017-11-17T13:11:53.415Z,7.68
2017-11-17T13:14:20.948Z,6.65
2017-11-17T13:16:48.858Z,7.30
2017-11-17T13:19:17.167Z,7.70
2017-11-17T13:21:44.685Z,7.57
2017-11-17T13:24:12.222Z,6.70
2017-11-17T13:26:40.537Z,6.90
2017-11-17T13:29:08.483Z,7.85
2017-11-17T13:31:36.039Z,6.65
2017-11-17T13:34:04.345Z,6.40
2017-11-17T13:36:31.898Z,7.43
2017-11-17T13:38:59.430Z,7.12
2017-11-17T13:41:27.375Z,6.22
2017-11-17T13:43:54.904Z,7.00
2017-11-17T13:46:22.459Z,6.35
2017-11-17T13:48:50.016Z,6.60
2017-11-17T13:51:17.593Z,6.87
2017-11-17T13:53:45.115Z,6.40
2017-11-17T13:56:12.672Z,7.03
2017-11-17T13:58:40.213Z,6.25
2017-11-17T14:01:08.157Z,6.57
2017-11-17T14:03:36.155Z,5.25
2017-11-17T14:06:04.465Z,5.90
2017-11-17T14:08:32.034Z,6.18
2017-11-17T14:10:59.624Z,5.82
2017-11-17T14:13:27.155Z,6.25
2017-11-17T14:15:54.693Z,7.30
2017-11-17T14:18:22.272Z,8.88
2017-11-17T14:20:49.812Z,8.55
2017-11-17T14:23:17.344Z,9.45
2017-11-17T14:25:45.707Z,9.10
2017-11-17T14:28:14.024Z,9.90
2017-11-17T14:30:41.561Z,9.27
2017-11-17T14:33:09.895Z,11.00
2017-11-17T14:35:37.442Z,13.70
2017-11-17T14:38:05.003Z,34.40
2017-11-17T14:40:32.985Z,59.97
2017-11-17T14:43:00.942Z,100.20
2017-11-17T14:45:28.504Z,133.25
2017-11-17T14:47:56.084Z,185.05
2017-11-17T14:50:23.643Z,196.48
2017-11-17T14:52:51.184Z,239.10
2017-11-17T14:55:18.748Z,322.20
2017-11-17T14:57:46.302Z,376.58
2017-11-17T15:00:14.266Z,406.17
2017-11-17T15:02:41.828Z,435.75
2017-11-17T15:05:09.344Z,441.70
2017-11-17T15:07:37.297Z,430.80
2017-11-17T15:10:04.907Z,419.05
2017-11-17T15:12:32.460Z,403.87
2017-11-17T15:14:59.995Z,391.23
2017-11-17T15:17:28.338Z,370.40
2017-11-17T15:19:55.984Z,374.50
2017-11-17T15:22:23.532Z,363.90
2017-11-17T15:24:51.097Z,351.95
2017-11-17T15:27:18.619Z,339.05
2017-11-17T15:29:46.911Z,328.55
2017-11-17T15:32:14.863Z,315.15
2017-11-17T15:34:43.296Z,316.85
2017-11-17T15:37:10.827Z,307.05
2017-11-17T15:39:38.802Z,306.20
2017-11-17T15:42:06.787Z,304.52
2017-11-17T15:44:34.700Z,287.07
2017-11-17T15:47:03.040Z,289.20
2017-11-17T15:49:30.591Z,280.97
2017-11-17T15:51:58.145Z,275.90
2017-11-17T15:54:25.716Z,273.98
2017-11-17T15:56:53.246Z,264.35
2017-11-17T15:59:20.830Z,253.82
2017-11-17T16:01:48.416Z,262.42
2017-11-17T16:04:16.707Z,251.23
2017-11-17T16:06:45.003Z,253.27
2017-11-17T16:09:13.429Z,251.50
2017-11-17T16:11:40.988Z,242.37
2017-11-17T16:14:08.531Z,236.33
2017-11-17T16:16:37.242Z,234.90
2017-11-17T16:19:04.787Z,234.85
2017-11-17T16:21:32.311Z,228.05
2017-11-17T16:24:00.628Z,224.65
2017-11-17T16:26:28.572Z,222.88
2017-11-17T16:28:56.907Z,224.45
2017-11-17T16:31:24.911Z,216.55
2017-11-17T16:33:53.228Z,219.47
2017-11-17T16:36:20.791Z,215.37
2017-11-17T16:38:48.372Z,207.73
2017-11-17T16:41:16.689Z,203.70
2017-11-17T16:43:44.646Z,198.62
2017-11-17T16:46:13.005Z,196.98
2017-11-17T16:48:40.985Z,191.95
2017-11-17T16:51:08.940Z,194.65
2017-11-17T16:53:36.527Z,187.45
2017-11-17T16:56:04.844Z,184.15
2017-11-17T16:58:32.405Z,174.47
2017-11-17T17:00:59.993Z,185.52
2017-11-17T17:03:27.945Z,170.20
2017-11-17T17:05:55.506Z,167.87
2017-11-17T17:08:23.077Z,170.02
2017-11-17T17:10:50.648Z,169.25
2017-11-17T17:13:18.628Z,167.48
2017-11-17T17:15:46.237Z,162.77
2017-11-17T17:18:13.792Z,161.85
2017-11-17T17:20:41.344Z,158.27
2017-11-17T17:23:08.932Z,153.77
2017-11-17T17:25:36.522Z,150.00
2017-11-17T17:28:04.868Z,146.95
2017-11-17T17:30:32.861Z,145.73
2017-11-17T17:33:00.795Z,139.73
2017-11-17T17:35:28.356Z,141.40
2017-11-17T17:37:56.037Z,141.50
2017-11-17T17:40:23.605Z,134.60
2017-11-17T17:42:51.560Z,135.07
2017-11-17T17:45:19.099Z,129.68
2017-11-17T17:47:46.639Z,128.25
2017-11-17T17:50:15.060Z,127.68
2017-11-17T17:52:43.425Z,120.93
2017-11-17T17:55:11.004Z,116.10
2017-11-17T17:57:39.757Z,117.37
2017-11-17T18:00:07.363Z,113.25
2017-11-17T18:02:35.650Z,109.47
2017-11-17T18:05:03.588Z,109.85
2017-11-17T18:07:31.573Z,103.17
2017-11-17T18:09:59.126Z,103.17
2017-11-17T18:12:27.094Z,100.45
2017-11-17T18:14:54.681Z,98.78
2017-11-17T18:17:22.213Z,94.72
2017-11-17T18:19:49.732Z,95.18
2017-11-17T18:22:17.715Z,88.50
2017-11-17T18:24:45.293Z,87.50
2017-11-17T18:27:12.866Z,88.47
2017-11-17T18:29:40.443Z,85.45
2017-11-17T18:32:08.025Z,80.78
2017-11-17T18:34:36.339Z,78.40
2017-11-17T18:37:03.933Z,77.90
2017-11-17T18:39:31.480Z,75.12
2017-11-17T18:41:59.023Z,70.97
2017-11-17T18:44:26.758Z,69.05
2017-11-17T18:46:54.292Z,65.50
2017-11-17T18:49:21.852Z,67.12
2017-11-17T18:51:49.428Z,62.17
2017-11-17T18:54:17.484Z,62.10
2017-11-17T18:56:45.111Z,61.50
2017-11-17T18:59:12.672Z,61.40
2017-11-17T19:01:40.253Z,57.50
2017-11-17T19:04:07.766Z,57.13
2017-11-17T19:06:37.149Z,59.03
2017-11-17T19:09:04.680Z,56.67
2017-11-17T19:11:33.019Z,54.67
2017-11-17T19:14:00.592Z,55.35
2017-11-17T19:16:28.136Z,53.33
2017-11-17T19:18:55.714Z,50.78
2017-11-17T19:21:23.301Z,50.42
2017-11-17T19:23:50.844Z,48.65
2017-11-17T19:26:18.379Z,48.33
2017-11-17T19:28:45.946Z,47.30
2017-11-17T19:31:13.483Z,45.38
2017-11-17T19:33:41.034Z,44.78
2017-11-17T19:36:09.388Z,43.47
2017-11-17T19:38:37.038Z,42.97
2017-11-17T19:41:04.597Z,40.40
2017-11-17T19:43:32.184Z,41.85
2017-11-17T19:46:00.500Z,40.42
2017-11-17T19:48:28.049Z,39.20
2017-11-17T19:50:55.603Z,41.67
2017-11-17T19:53:23.149Z,37.97
2017-11-17T19:55:51.461Z,37.78
2017-11-17T19:58:19.031Z,36.20
2017-11-17T20:00:46.797Z,37.88
2017-11-17T20:03:14.359Z,36.03
2017-11-17T20:05:41.936Z,36.77
2017-11-17T20:08:09.486Z,33.50
2017-11-17T20:10:37.064Z,32.78
2017-11-17T20:13:04.677Z,33.67
2017-11-17T20:15:32.237Z,31.75
2017-11-17T20:17:59.786Z,31.17
2017-11-17T20:20:27.687Z,31.07
2017-11-17T20:22:55.452Z,29.40
2017-11-17T20:25:23.228Z,30.90
2017-11-17T20:27:50.825Z,28.25
2017-11-17T20:30:19.170Z,28.87
2017-11-17T20:32:46.935Z,27.90
2017-11-17T20:35:15.504Z,28.75
2017-11-17T20:37:43.101Z,28.40
2017-11-17T20:40:10.938Z,26.60
2017-11-17T20:42:40.072Z,27.37
2017-11-17T20:45:07.617Z,27.20
2017-11-17T20:47:35.173Z,25.20
2017-11-17T20:50:03.018Z,26.07
2017-11-17T20:52:30.609Z,24.30
2017-11-17T20:54:59.786Z,25.40
2017-11-17T20:57:27.384Z,23.55
2017-11-17T20:59:55.706Z,24.10
2017-11-17T21:02:23.260Z,23.77
2017-11-17T21:04:50.849Z,23.70
2017-11-17T21:07:18.402Z,23.93
2017-11-17T21:09:45.958Z,23.42
2017-11-17T21:12:13.553Z,22.67
2017-11-17T21:14:41.114Z,22.35
2017-11-17T21:17:08.661Z,21.08
2017-11-17T21:19:36.224Z,22.43
2017-11-17T21:22:04.915Z,22.10
2017-11-17T21:24:32.469Z,19.65
2017-11-17T21:27:00.813Z,20.33
2017-11-17T21:29:28.761Z,19.60
2017-11-17T21:31:58.191Z,19.37
2017-11-17T21:34:28.002Z,18.95
2017-11-17T21:36:56.586Z,19.40
2017-11-17T21:39:24.752Z,19.60
2017-11-17T21:44:27.867Z,18.67
2017-11-17T21:46:55.670Z,18.40
2017-11-17T21:52:08.674Z,17.10
2017-11-17T21:54:37.769Z,18.00
2017-11-17T21:57:05.636Z,17.80
2017-11-17T21:59:36.795Z,17.87
2017-11-17T22:02:06.080Z,16.83
2017-11-17T22:04:34.767Z,16.70
2017-11-17T22:07:04.300Z,16.48
2017-11-17T22:09:32.140Z,16.15
2017-11-17T22:11:59.800Z,16.10
2017-11-17T22:14:29.171Z,15.90
2017-11-17T22:16:57.072Z,15.93
2017-11-17T22:19:24.944Z,16.10
2017-11-17T22:21:57.018Z,14.75
2017-11-17T22:24:31.836Z,14.82
2017-11-17T22:26:59.462Z,14.77
2017-11-17T22:29:28.056Z,14.75
2017-11-17T22:31:55.739Z,15.00
2017-11-17T22:34:23.407Z,13.48
2017-11-17T22:36:50.988Z,14.38
2017-11-17T22:39:18.571Z,13.62
2017-11-17T22:41:46.164Z,14.18
2017-11-17T22:44:13.768Z,14.07
2017-11-17T22:46:41.362Z,13.77
2017-11-17T22:49:09.664Z,13.13
2017-11-17T22:54:10.171Z,12.30
2017-11-17T22:56:39.209Z,13.20
2017-11-17T22:59:06.812Z,12.82
2017-11-17T23:04:19.757Z,12.20
2017-11-17T23:06:50.231Z,13.97
2017-11-17T23:09:20.071Z,12.70
2017-11-17T23:11:51.520Z,11.93
2017-11-17T23:16:52.420Z,12.40
2017-11-17T23:19:19.957Z,11.15
2017-11-17T23:21:48.559Z,11.85
2017-11-17T23:24:16.727Z,11.60
2017-11-17T23:26:44.908Z,11.60
2017-11-17T23:29:13.930Z,12.05
2017-11-17T23:31:42.446Z,10.82
2017-11-17T23:34:12.344Z,11.25
2017-11-17T23:36:39.926Z,10.43
2017-11-17T23:39:07.500Z,11.15
2017-11-17T23:41:37.084Z,10.60
2017-11-17T23:44:06.184Z,10.17
2017-11-17T23:46:35.290Z,9.30
2017-11-17T23:49:06.186Z,10.52
2017-11-17T23:51:33.855Z,10.23
2017-11-17T23:54:01.431Z,10.30
2017-11-17T23:56:28.969Z,10.10
2017-11-17T23:58:56.492Z,10.20
